createdAt,value
2022-07-25T00:00:46.065Z,66.89
2022-07-25T00:01:46.295Z,67.04
2022-07-25T00:02:46.048Z,67.27
2022-07-25T00:03:46.133Z,67.41
2022-07-25T00:04:46.096Z,67.46
2022-07-25T00:05:46.099Z,67.47
2022-07-25T00:06:45.994Z,67.68
2022-07-25T00:07:46.004Z,67.51
2022-07-25T00:08:45.962Z,67.01
2022-07-25T00:09:46.152Z,66.49
2022-07-25T00:10:45.936Z,66.51
2022-07-25T00:11:46.034Z,66.50
2022-07-25T00:12:45.904Z,66.80
2022-07-25T00:13:45.948Z,66.77
2022-07-25T00:14:45.896Z,67.06
2022-07-25T00:15:46.271Z,67.33
2022-07-25T00:16:45.855Z,67.66
2022-07-25T00:17:45.864Z,67.39
2022-07-25T00:18:45.827Z,67.62
2022-07-25T00:19:45.895Z,67.58
2022-07-25T00:20:45.806Z,67.75
2022-07-25T00:21:45.865Z,67.93
2022-07-25T00:22:45.767Z,67.96
2022-07-25T00:23:45.819Z,68.29
2022-07-25T00:24:45.747Z,68.55
2022-07-25T00:25:45.829Z,68.99
2022-07-25T00:26:45.724Z,69.09
2022-07-25T00:27:45.853Z,69.04
2022-07-25T00:28:45.688Z,68.86
2022-07-25T00:29:45.767Z,68.87
2022-07-25T00:30:45.714Z,69.26
2022-07-25T00:31:45.725Z,69.03
2022-07-25T00:32:45.636Z,69.01
2022-07-25T00:33:45.746Z,69.24
2022-07-25T00:34:45.617Z,69.33
2022-07-25T00:35:45.703Z,69.50
2022-07-25T00:36:45.586Z,69.48
2022-07-25T00:37:45.613Z,69.62
2022-07-25T00:38:45.557Z,69.44
2022-07-25T00:39:45.677Z,69.86
2022-07-25T00:40:45.539Z,70.04
2022-07-25T00:41:46.518Z,69.98
2022-07-25T00:42:45.552Z,70.01
2022-07-25T00:43:45.488Z,70.46
2022-07-25T00:44:46.609Z,70.51
2022-07-25T00:45:45.480Z,70.19
2022-07-25T00:46:45.515Z,70.43
2022-07-25T00:47:45.439Z,70.44
2022-07-25T00:48:45.527Z,70.37
2022-07-25T00:49:45.409Z,70.33
2022-07-25T00:50:45.499Z,70.54
2022-07-25T00:51:45.400Z,70.16
2022-07-25T00:52:45.419Z,70.63
2022-07-25T00:53:45.359Z,70.25
2022-07-25T00:54:45.429Z,70.16
2022-07-25T00:55:45.328Z,70.50
2022-07-25T00:56:45.339Z,70.32
2022-07-25T00:57:45.321Z,70.37
2022-07-25T00:58:45.363Z,70.40
2022-07-25T00:59:45.279Z,70.44
2022-07-25T01:00:45.371Z,70.53
2022-07-25T01:01:45.293Z,70.65
2022-07-25T01:02:45.356Z,70.87
2022-07-25T01:03:45.257Z,70.08
2022-07-25T01:04:45.294Z,70.25
2022-07-25T01:05:47.969Z,70.50
2022-07-25T01:06:46.185Z,70.37
2022-07-25T01:07:45.212Z,70.38
2022-07-25T01:08:45.158Z,70.39
2022-07-25T01:09:45.188Z,70.54
2022-07-25T01:10:45.121Z,70.82
2022-07-25T01:11:47.240Z,70.82
2022-07-25T01:12:45.102Z,70.53
2022-07-25T01:13:45.168Z,70.58
2022-07-25T01:14:45.118Z,70.24
2022-07-25T01:15:45.165Z,70.51
2022-07-25T01:16:45.042Z,70.59
2022-07-25T01:17:45.092Z,70.49
2022-07-25T01:18:45.020Z,70.33
2022-07-25T01:19:45.091Z,70.38
2022-07-25T01:20:44.991Z,70.46
2022-07-25T01:21:45.062Z,70.59
2022-07-25T01:22:44.960Z,70.69
2022-07-25T01:23:46.044Z,70.68
2022-07-25T01:24:44.944Z,70.70
2022-07-25T01:25:45.044Z,70.59
2022-07-25T01:26:44.923Z,70.82
2022-07-25T01:27:45.002Z,71.07
2022-07-25T01:28:44.883Z,70.86
2022-07-25T01:29:44.979Z,71.05
2022-07-25T01:30:44.919Z,70.84
2022-07-25T01:31:44.879Z,70.64
2022-07-25T01:32:44.824Z,70.71
2022-07-25T01:33:44.942Z,70.66
2022-07-25T01:34:44.812Z,71.07
2022-07-25T01:35:44.824Z,70.79
2022-07-25T01:36:44.773Z,70.44
2022-07-25T01:37:45.472Z,70.45
2022-07-25T01:38:44.743Z,70.60
2022-07-25T01:39:44.892Z,70.51
2022-07-25T01:40:44.724Z,70.77
2022-07-25T01:41:44.752Z,70.92
2022-07-25T01:42:44.704Z,71.03
2022-07-25T01:43:44.767Z,71.31
2022-07-25T01:44:44.665Z,71.40
2022-07-25T01:45:44.732Z,71.39
2022-07-25T01:46:44.687Z,71.53
2022-07-25T01:47:44.685Z,71.58
2022-07-25T01:48:44.661Z,71.93
2022-07-25T01:49:44.704Z,71.87
2022-07-25T01:50:44.586Z,71.72
2022-07-25T01:51:44.665Z,71.73
2022-07-25T01:52:44.556Z,71.85
2022-07-25T01:53:44.644Z,71.99
2022-07-25T01:54:44.535Z,71.77
2022-07-25T01:55:44.538Z,71.86
2022-07-25T01:56:44.512Z,71.96
2022-07-25T01:57:49.706Z,71.86
2022-07-25T01:58:45.485Z,71.89
2022-07-25T01:59:45.495Z,71.92
2022-07-25T02:00:44.447Z,71.72
2022-07-25T02:01:45.572Z,71.90
2022-07-25T02:02:44.424Z,71.74
2022-07-25T02:03:44.546Z,71.77
2022-07-25T02:04:44.449Z,71.90
2022-07-25T02:05:44.408Z,71.89
2022-07-25T02:06:44.377Z,72.29
2022-07-25T02:07:44.425Z,72.54
2022-07-25T02:08:44.347Z,72.56
2022-07-25T02:09:44.436Z,72.63
2022-07-25T02:10:44.324Z,72.44
2022-07-25T02:11:44.347Z,72.44
2022-07-25T02:12:44.294Z,72.60
2022-07-25T02:13:44.368Z,72.61
2022-07-25T02:14:44.268Z,72.75
2022-07-25T02:15:45.360Z,72.77
2022-07-25T02:16:44.298Z,73.02
2022-07-25T02:17:44.299Z,73.10
2022-07-25T02:18:44.217Z,73.23
2022-07-25T02:19:44.308Z,73.28
2022-07-25T02:20:44.188Z,73.19
2022-07-25T02:21:44.277Z,73.12
2022-07-25T02:22:44.167Z,72.99
2022-07-25T02:23:44.266Z,73.02
2022-07-25T02:24:44.127Z,72.88
2022-07-25T02:25:44.148Z,73.16
2022-07-25T02:26:44.108Z,72.95
2022-07-25T02:27:44.209Z,73.21
2022-07-25T02:28:44.079Z,73.13
2022-07-25T02:29:44.176Z,73.63
2022-07-25T02:30:44.063Z,73.29
2022-07-25T02:31:44.078Z,73.29
2022-07-25T02:32:44.019Z,73.09
2022-07-25T02:33:44.048Z,73.04
2022-07-25T02:34:43.999Z,73.10
2022-07-25T02:35:44.016Z,73.24
2022-07-25T02:36:43.969Z,73.44
2022-07-25T02:37:44.027Z,73.38
2022-07-25T02:38:43.950Z,73.30
2022-07-25T02:39:43.988Z,73.39
2022-07-25T02:40:43.910Z,73.57
2022-07-25T02:41:43.952Z,73.70
2022-07-25T02:42:43.889Z,73.83
2022-07-25T02:43:43.968Z,74.03
2022-07-25T02:44:43.872Z,74.11
2022-07-25T02:45:43.988Z,74.33
2022-07-25T02:46:43.839Z,74.35
2022-07-25T02:47:43.898Z,74.40
2022-07-25T02:48:43.842Z,74.47
2022-07-25T02:49:43.911Z,74.58
2022-07-25T02:50:43.781Z,74.76
2022-07-25T02:51:43.882Z,74.85
2022-07-25T02:52:43.750Z,74.91
2022-07-25T02:53:59.372Z,74.83
2022-07-25T02:54:44.740Z,74.96
2022-07-25T02:55:44.779Z,75.13
2022-07-25T02:56:43.697Z,75.01
2022-07-25T02:57:43.820Z,74.89
2022-07-25T02:58:43.670Z,75.21
2022-07-25T02:59:43.781Z,75.18
2022-07-25T03:00:44.311Z,74.95
2022-07-25T03:01:43.738Z,75.09
2022-07-25T03:02:43.619Z,74.79
2022-07-25T03:03:43.733Z,75.12
2022-07-25T03:04:43.591Z,74.94
2022-07-25T03:05:43.618Z,74.65
2022-07-25T03:06:43.571Z,74.75
2022-07-25T03:07:43.631Z,74.71
2022-07-25T03:08:43.541Z,74.93
2022-07-25T03:09:43.599Z,74.87
2022-07-25T03:10:43.511Z,74.97
2022-07-25T03:11:43.561Z,75.07
2022-07-25T03:12:43.481Z,75.15
2022-07-25T03:13:43.573Z,75.12
2022-07-25T03:14:43.461Z,75.27
2022-07-25T03:15:43.542Z,75.36
2022-07-25T03:16:43.460Z,75.69
2022-07-25T03:17:43.493Z,75.78
2022-07-25T03:18:43.402Z,75.47
2022-07-25T03:19:43.412Z,75.24
2022-07-25T03:20:43.375Z,75.22
2022-07-25T03:21:43.481Z,75.20
2022-07-25T03:22:43.351Z,75.26
2022-07-25T03:23:43.441Z,75.35
2022-07-25T03:24:43.321Z,75.34
2022-07-25T03:25:43.351Z,75.23
2022-07-25T03:26:43.302Z,75.41
2022-07-25T03:27:43.421Z,75.35
2022-07-25T03:28:43.272Z,75.49
2022-07-25T03:29:43.272Z,75.38
2022-07-25T03:30:43.244Z,75.59
2022-07-25T03:31:44.404Z,75.55
2022-07-25T03:32:43.222Z,75.56
2022-07-25T03:33:43.253Z,75.66
2022-07-25T03:34:43.195Z,75.66
2022-07-25T03:35:43.223Z,75.85
2022-07-25T03:36:43.163Z,75.95
2022-07-25T03:37:43.239Z,76.09
2022-07-25T03:38:43.143Z,75.89
2022-07-25T03:39:43.202Z,75.83
2022-07-25T03:40:43.115Z,75.91
2022-07-25T03:41:43.167Z,75.98
2022-07-25T03:42:43.084Z,76.00
2022-07-25T03:43:43.174Z,76.00
2022-07-25T03:44:43.065Z,76.24
2022-07-25T03:45:43.216Z,76.26
2022-07-25T03:46:43.034Z,76.10
2022-07-25T03:47:44.130Z,76.36
2022-07-25T03:48:43.105Z,76.56
2022-07-25T03:49:43.014Z,76.52
2022-07-25T03:50:42.979Z,76.31
2022-07-25T03:51:43.098Z,76.47
2022-07-25T03:52:42.954Z,76.24
2022-07-25T03:53:43.044Z,76.51
2022-07-25T03:54:42.923Z,76.40
2022-07-25T03:55:42.964Z,76.07
2022-07-25T03:56:43.821Z,76.28
2022-07-25T03:57:42.925Z,75.88
2022-07-25T03:58:42.891Z,75.83
2022-07-25T03:59:43.905Z,75.86
2022-07-25T04:00:42.934Z,75.99
2022-07-25T04:01:42.895Z,76.06
2022-07-25T04:02:42.850Z,76.08
2022-07-25T04:03:42.867Z,76.14
2022-07-25T04:04:42.785Z,76.26
2022-07-25T04:05:47.236Z,76.23
2022-07-25T04:06:42.765Z,76.28
2022-07-25T04:07:42.836Z,76.35
2022-07-25T04:08:42.734Z,76.34
2022-07-25T04:09:42.804Z,76.43
2022-07-25T04:10:42.705Z,76.21
2022-07-25T04:11:43.788Z,76.30
2022-07-25T04:12:42.675Z,76.22
2022-07-25T04:13:42.779Z,76.28
2022-07-25T04:14:42.653Z,76.20
2022-07-25T04:15:42.745Z,76.16
2022-07-25T04:16:42.708Z,76.14
2022-07-25T04:17:42.706Z,76.03
2022-07-25T04:18:42.599Z,76.15
2022-07-25T04:19:42.619Z,76.06
2022-07-25T04:20:42.568Z,75.82
2022-07-25T04:21:42.686Z,75.81
2022-07-25T04:22:46.725Z,75.69
2022-07-25T04:23:42.527Z,75.71
2022-07-25T04:24:42.557Z,75.65
2022-07-25T04:25:42.514Z,75.75
2022-07-25T04:26:42.585Z,75.75
2022-07-25T04:27:42.496Z,75.77
2022-07-25T04:28:42.478Z,75.86
2022-07-25T04:29:42.482Z,75.74
2022-07-25T04:30:42.497Z,75.70
2022-07-25T04:31:42.491Z,75.69
2022-07-25T04:32:42.507Z,75.94
2022-07-25T04:33:42.417Z,76.05
2022-07-25T04:34:42.418Z,76.06
2022-07-25T04:35:42.368Z,76.05
2022-07-25T04:36:43.458Z,76.28
2022-07-25T04:37:42.347Z,76.11
2022-07-25T04:38:42.346Z,76.23
2022-07-25T04:39:42.327Z,76.21
2022-07-25T04:40:43.388Z,75.86
2022-07-25T04:41:42.285Z,75.93
2022-07-25T04:42:42.377Z,75.80
2022-07-25T04:43:48.030Z,75.83
2022-07-25T04:44:43.267Z,75.85
2022-07-25T04:45:42.384Z,75.84
2022-07-25T04:46:42.218Z,75.86
2022-07-25T04:47:42.320Z,75.66
2022-07-25T04:48:42.223Z,75.89
2022-07-25T04:49:42.179Z,75.91
2022-07-25T04:50:42.287Z,75.58
2022-07-25T04:51:42.150Z,76.01
2022-07-25T04:52:42.260Z,75.93
2022-07-25T04:53:42.119Z,75.29
2022-07-25T04:54:43.182Z,75.58
2022-07-25T04:55:42.098Z,73.46
2022-07-25T04:56:42.130Z,72.41
2022-07-25T04:57:42.068Z,71.69
2022-07-25T04:58:42.378Z,71.26
2022-07-25T04:59:42.058Z,71.15
2022-07-25T05:00:42.174Z,71.40
2022-07-25T05:01:42.018Z,70.50
2022-07-25T05:02:42.115Z,70.26
2022-07-25T05:03:41.988Z,70.00
2022-07-25T05:04:45.302Z,70.85
2022-07-25T05:05:43.048Z,69.80
2022-07-25T05:06:41.950Z,70.00
2022-07-25T05:07:42.049Z,69.74
2022-07-25T05:08:41.950Z,68.84
2022-07-25T05:09:41.955Z,68.91
2022-07-25T05:10:41.889Z,68.79
2022-07-25T05:11:46.858Z,68.71
2022-07-25T05:12:42.870Z,68.35
2022-07-25T05:13:41.882Z,68.33
2022-07-25T05:14:41.871Z,68.26
2022-07-25T05:15:41.903Z,68.37
2022-07-25T05:16:41.885Z,67.65
2022-07-25T05:17:41.914Z,68.29
2022-07-25T05:18:41.792Z,67.49
2022-07-25T05:19:41.831Z,67.36
2022-07-25T05:20:41.780Z,67.59
2022-07-25T05:21:41.844Z,67.18
2022-07-25T05:22:41.729Z,67.37
2022-07-25T05:23:41.753Z,67.38
2022-07-25T05:24:41.703Z,66.98
2022-07-25T05:25:41.769Z,67.22
2022-07-25T05:26:41.691Z,68.83
2022-07-25T05:27:41.795Z,67.01
2022-07-25T05:28:41.653Z,67.61
2022-07-25T05:29:41.693Z,67.38
2022-07-25T05:30:41.623Z,68.18
2022-07-25T05:31:41.743Z,67.07
2022-07-25T05:32:41.612Z,67.82
2022-07-25T05:33:41.622Z,68.02
2022-07-25T05:34:41.578Z,67.39
2022-07-25T05:35:41.643Z,68.66
2022-07-25T05:36:46.843Z,68.01
2022-07-25T05:37:42.594Z,66.52
2022-07-25T05:38:41.560Z,67.93
2022-07-25T05:39:41.503Z,68.04
2022-07-25T05:40:41.672Z,67.41
2022-07-25T05:41:41.472Z,68.56
2022-07-25T05:42:41.483Z,68.96
2022-07-25T05:43:41.484Z,68.15
2022-07-25T05:44:41.505Z,67.33
2022-07-25T05:45:41.425Z,68.97
2022-07-25T05:46:41.575Z,68.22
2022-07-25T05:47:41.403Z,68.78
2022-07-25T05:48:41.476Z,67.09
2022-07-25T05:49:41.384Z,68.20
2022-07-25T05:50:41.436Z,68.86
2022-07-25T05:51:41.335Z,69.69
2022-07-25T05:52:41.356Z,70.02
2022-07-25T05:53:41.305Z,70.05
2022-07-25T05:54:41.368Z,68.57
2022-07-25T05:55:41.304Z,64.22
2022-07-25T05:56:41.383Z,64.03
2022-07-25T05:57:41.255Z,65.40
2022-07-25T05:58:41.305Z,65.49
2022-07-25T05:59:41.226Z,62.82
2022-07-25T06:00:41.305Z,62.91
2022-07-25T06:01:41.254Z,64.76
2022-07-25T06:02:41.396Z,65.22
2022-07-25T06:03:41.258Z,64.53
2022-07-25T06:04:41.234Z,65.02
2022-07-25T06:05:41.147Z,65.79
2022-07-25T06:06:41.248Z,66.72
2022-07-25T06:07:41.138Z,66.04
2022-07-25T06:08:41.157Z,63.84
2022-07-25T06:09:41.101Z,63.17
2022-07-25T06:10:41.169Z,62.56
2022-07-25T06:11:51.137Z,63.34
2022-07-25T06:12:42.077Z,62.92
2022-07-25T06:13:41.099Z,61.47
2022-07-25T06:14:41.027Z,62.57
2022-07-25T06:15:41.107Z,63.87
2022-07-25T06:16:41.092Z,63.08
2022-07-25T06:17:41.018Z,62.69
2022-07-25T06:18:41.018Z,62.99
2022-07-25T06:19:41.115Z,60.81
2022-07-25T06:20:40.947Z,61.55
2022-07-25T06:21:41.048Z,60.41
2022-07-25T06:22:40.926Z,63.12
2022-07-25T06:24:02.019Z,60.97
2022-07-25T06:24:40.900Z,60.48
2022-07-25T06:25:40.980Z,61.75
2022-07-25T06:26:40.877Z,61.11
2022-07-25T06:27:40.889Z,61.84
2022-07-25T06:28:40.851Z,60.10
2022-07-25T06:29:40.959Z,60.84
2022-07-25T06:30:40.819Z,61.71
2022-07-25T06:31:40.975Z,58.50
2022-07-25T06:32:40.809Z,59.70
2022-07-25T06:33:41.861Z,59.45
2022-07-25T06:34:40.771Z,59.31
2022-07-25T06:35:40.900Z,59.04
2022-07-25T06:36:40.742Z,58.64
2022-07-25T06:37:40.760Z,62.19
2022-07-25T06:38:40.720Z,61.47
2022-07-25T06:39:45.636Z,61.11
2022-07-25T06:40:40.740Z,58.30
2022-07-25T06:41:41.761Z,58.21
2022-07-25T06:42:40.671Z,57.68
2022-07-25T06:43:40.701Z,60.13
2022-07-25T06:44:40.641Z,55.88
2022-07-25T06:45:40.721Z,56.09
2022-07-25T06:46:40.689Z,58.43
2022-07-25T06:47:40.692Z,55.10
2022-07-25T06:48:40.679Z,53.85
2022-07-25T06:49:40.652Z,52.87
2022-07-25T06:50:40.581Z,54.85
2022-07-25T06:51:40.671Z,55.23
2022-07-25T06:52:40.554Z,54.25
2022-07-25T06:53:40.654Z,51.71
2022-07-25T06:54:40.532Z,49.31
2022-07-25T06:55:40.582Z,49.07
2022-07-25T06:56:40.494Z,49.96
2022-07-25T06:57:42.592Z,50.52
2022-07-25T06:58:40.433Z,50.38
2022-07-25T06:59:40.620Z,48.79
2022-07-25T07:00:40.531Z,51.23
2022-07-25T07:01:40.563Z,50.47
2022-07-25T07:02:40.388Z,50.59
2022-07-25T07:03:45.983Z,50.53
2022-07-25T07:04:42.560Z,49.42
2022-07-25T07:05:41.867Z,50.04
2022-07-25T07:06:40.334Z,51.24
2022-07-25T07:07:44.411Z,49.65
2022-07-25T07:08:41.724Z,47.06
2022-07-25T07:09:40.627Z,48.23
2022-07-25T07:10:40.396Z,47.75
2022-07-25T07:11:45.007Z,48.78
2022-07-25T07:12:40.255Z,47.80
2022-07-25T07:13:40.745Z,48.10
2022-07-25T07:14:40.228Z,47.26
2022-07-25T07:15:40.523Z,47.56
2022-07-25T07:16:40.227Z,47.17
2022-07-25T07:17:40.304Z,46.53
2022-07-25T07:18:40.177Z,46.30
2022-07-25T07:19:40.267Z,46.93
2022-07-25T07:20:40.146Z,46.67
2022-07-25T07:21:40.198Z,47.62
2022-07-25T07:22:40.118Z,48.51
2022-07-25T07:23:41.157Z,48.17
2022-07-25T07:24:44.078Z,46.28
2022-07-25T07:25:41.112Z,48.33
2022-07-25T07:26:40.148Z,48.42
2022-07-25T07:27:40.062Z,48.78
2022-07-25T07:28:40.179Z,45.90
2022-07-25T07:29:40.048Z,46.42
2022-07-25T07:31:13.434Z,45.75
2022-07-25T07:31:41.073Z,46.78
2022-07-25T07:32:40.029Z,46.91
2022-07-25T07:33:40.269Z,46.24
2022-07-25T07:34:40.120Z,46.27
2022-07-25T07:35:39.998Z,45.97
2022-07-25T07:36:41.765Z,46.67
2022-07-25T07:37:43.579Z,47.43
2022-07-25T07:38:39.919Z,46.20
2022-07-25T07:40:01.384Z,46.18
2022-07-25T07:40:40.400Z,45.23
2022-07-25T07:41:40.051Z,45.15
2022-07-25T07:42:41.154Z,45.43
2022-07-25T07:43:40.369Z,47.18
2022-07-25T07:44:39.821Z,46.61
2022-07-25T07:45:39.920Z,45.46
2022-07-25T07:46:39.859Z,45.80
2022-07-25T07:47:39.899Z,45.05
2022-07-25T07:48:39.803Z,45.58
2022-07-25T07:49:39.851Z,45.97
2022-07-25T07:50:39.755Z,46.29
2022-07-25T07:51:39.759Z,46.89
2022-07-25T07:52:39.841Z,46.26
2022-07-25T07:53:39.834Z,46.30
2022-07-25T07:54:39.691Z,46.89
2022-07-25T07:55:40.724Z,46.23
2022-07-25T07:56:40.488Z,47.34
2022-07-25T07:57:40.203Z,46.42
2022-07-25T07:58:39.644Z,47.10
2022-07-25T07:59:39.677Z,47.05
2022-07-25T08:00:39.612Z,44.60
2022-07-25T08:01:39.677Z,46.55
2022-07-25T08:02:39.621Z,46.89
2022-07-25T08:03:39.644Z,46.24
2022-07-25T08:04:39.554Z,46.67
2022-07-25T08:05:39.604Z,43.57
2022-07-25T08:06:39.525Z,46.26
2022-07-25T08:07:39.574Z,46.12
2022-07-25T08:08:39.505Z,44.95
2022-07-25T08:09:39.584Z,43.86
2022-07-25T08:10:39.483Z,44.35
2022-07-25T08:11:39.534Z,44.64
2022-07-25T08:12:39.446Z,45.33
2022-07-25T08:13:39.684Z,46.23
2022-07-25T08:14:39.424Z,44.54
2022-07-25T08:15:39.481Z,45.52
2022-07-25T08:16:39.454Z,45.32
2022-07-25T08:17:39.517Z,45.86
2022-07-25T08:18:39.365Z,45.25
2022-07-25T08:19:39.455Z,46.06
2022-07-25T08:20:39.544Z,45.32
2022-07-25T08:21:39.376Z,45.57
2022-07-25T08:22:39.317Z,44.57
2022-07-25T08:23:40.348Z,44.03
2022-07-25T08:24:39.297Z,44.44
2022-07-25T08:25:39.301Z,44.76
2022-07-25T08:26:39.270Z,45.12
2022-07-25T08:27:39.339Z,44.90
2022-07-25T08:28:39.247Z,44.84
2022-07-25T08:29:39.267Z,45.53
2022-07-25T08:30:39.223Z,45.48
2022-07-25T08:31:39.382Z,44.91
2022-07-25T08:32:39.192Z,44.67
2022-07-25T08:33:39.250Z,46.04
2022-07-25T08:34:39.152Z,46.39
2022-07-25T08:35:39.220Z,45.89
2022-07-25T08:36:39.134Z,44.12
2022-07-25T08:37:39.170Z,43.51
2022-07-25T08:38:39.099Z,43.45
2022-07-25T08:39:39.197Z,44.31
2022-07-25T08:40:39.081Z,43.97
2022-07-25T08:41:39.150Z,43.93
2022-07-25T08:42:39.061Z,44.65
2022-07-25T08:43:39.128Z,43.40
2022-07-25T08:44:39.016Z,44.66
2022-07-25T08:45:39.041Z,43.67
2022-07-25T08:46:39.088Z,48.78
2022-07-25T08:47:39.085Z,42.53
2022-07-25T08:48:39.074Z,43.73
2022-07-25T08:49:39.066Z,41.43
2022-07-25T08:50:38.960Z,42.14
2022-07-25T08:51:39.014Z,41.42
2022-07-25T08:52:38.922Z,42.26
2022-07-25T08:53:39.032Z,42.94
2022-07-25T08:54:38.942Z,42.81
2022-07-25T08:55:40.047Z,41.90
2022-07-25T08:56:38.863Z,43.80
2022-07-25T08:57:38.911Z,41.12
2022-07-25T08:58:38.865Z,41.34
2022-07-25T08:59:39.903Z,41.34
2022-07-25T09:00:38.814Z,42.43
2022-07-25T09:01:38.900Z,40.62
2022-07-25T09:02:38.906Z,42.33
2022-07-25T09:03:38.854Z,42.31
2022-07-25T09:04:38.996Z,41.80
2022-07-25T09:05:38.824Z,41.83
2022-07-25T09:06:38.726Z,42.10
2022-07-25T09:07:39.017Z,41.08
2022-07-25T09:08:38.696Z,41.11
2022-07-25T09:09:38.809Z,40.19
2022-07-25T09:10:38.676Z,41.86
2022-07-25T09:11:38.768Z,41.18
2022-07-25T09:12:39.527Z,41.34
2022-07-25T09:13:38.716Z,42.20
2022-07-25T09:14:38.698Z,42.86
2022-07-25T09:15:39.717Z,39.90
2022-07-25T09:16:40.010Z,40.28
2022-07-25T09:17:38.687Z,40.93
2022-07-25T09:18:38.561Z,39.68
2022-07-25T09:19:38.658Z,40.70
2022-07-25T09:20:38.551Z,41.63
2022-07-25T09:21:38.571Z,42.16
2022-07-25T09:22:38.519Z,42.28
2022-07-25T09:23:38.747Z,42.02
2022-07-25T09:24:38.491Z,41.03
2022-07-25T09:25:38.509Z,42.18
2022-07-25T09:26:38.458Z,41.17
2022-07-25T09:27:38.509Z,42.03
2022-07-25T09:28:38.439Z,40.18
2022-07-25T09:29:38.470Z,39.45
2022-07-25T09:30:38.399Z,40.09
2022-07-25T09:31:38.535Z,41.94
2022-07-25T09:32:38.389Z,39.19
2022-07-25T09:33:38.453Z,39.66
2022-07-25T09:34:38.397Z,37.94
2022-07-25T09:35:38.415Z,38.88
2022-07-25T09:36:38.322Z,38.18
2022-07-25T09:37:38.372Z,38.67
2022-07-25T09:38:38.291Z,39.23
2022-07-25T09:39:43.498Z,40.16
2022-07-25T09:40:39.312Z,41.66
2022-07-25T09:41:38.303Z,42.33
2022-07-25T09:42:38.993Z,40.65
2022-07-25T09:43:38.322Z,40.81
2022-07-25T09:44:38.212Z,42.67
2022-07-25T09:45:38.236Z,40.75
2022-07-25T09:46:38.292Z,41.23
2022-07-25T09:47:38.258Z,41.59
2022-07-25T09:48:38.226Z,39.59
2022-07-25T09:49:38.263Z,40.60
2022-07-25T09:50:38.143Z,40.67
2022-07-25T09:51:38.704Z,39.21
2022-07-25T09:52:38.144Z,40.27
2022-07-25T09:53:38.185Z,39.27
2022-07-25T09:54:39.055Z,39.17
2022-07-25T09:55:38.093Z,38.89
2022-07-25T09:56:38.062Z,40.30
2022-07-25T09:57:38.124Z,39.69
2022-07-25T09:58:38.062Z,40.65
2022-07-25T09:59:38.145Z,40.97
2022-07-25T10:00:38.006Z,39.60
2022-07-25T10:01:38.194Z,38.67
2022-07-25T10:02:38.036Z,38.37
2022-07-25T10:03:38.056Z,41.96
2022-07-25T10:04:37.977Z,41.95
2022-07-25T10:05:37.967Z,39.80
2022-07-25T10:06:37.927Z,39.80
2022-07-25T10:07:37.977Z,40.14
2022-07-25T10:08:39.286Z,39.64
2022-07-25T10:09:38.019Z,39.12
2022-07-25T10:10:37.896Z,38.67
2022-07-25T10:11:37.910Z,38.31
2022-07-25T10:12:40.996Z,38.62
2022-07-25T10:13:37.848Z,38.93
2022-07-25T10:14:37.932Z,38.76
2022-07-25T10:15:37.819Z,39.44
2022-07-25T10:16:38.035Z,39.34
2022-07-25T10:17:37.789Z,39.05
2022-07-25T10:18:39.849Z,39.11
2022-07-25T10:19:37.769Z,38.15
2022-07-25T10:20:37.770Z,38.15
2022-07-25T10:21:37.728Z,38.73
2022-07-25T10:22:55.691Z,39.16
2022-07-25T10:23:38.729Z,39.39
2022-07-25T10:24:37.802Z,38.54
2022-07-25T10:25:37.681Z,39.44
2022-07-25T10:26:37.830Z,39.30
2022-07-25T10:27:37.672Z,39.74
2022-07-25T10:28:37.808Z,38.36
2022-07-25T10:29:37.632Z,39.87
2022-07-25T10:30:37.664Z,38.88
2022-07-25T10:31:37.614Z,38.93
2022-07-25T10:32:37.668Z,38.69
2022-07-25T10:33:37.573Z,39.23
2022-07-25T10:34:37.627Z,39.58
2022-07-25T10:35:37.555Z,40.66
2022-07-25T10:36:37.603Z,41.33
2022-07-25T10:37:37.533Z,40.59
2022-07-25T10:38:37.606Z,40.91
2022-07-25T10:39:37.505Z,42.56
2022-07-25T10:40:38.586Z,42.23
2022-07-25T10:41:37.475Z,41.78
2022-07-25T10:42:37.522Z,40.63
2022-07-25T10:43:37.454Z,42.15
2022-07-25T10:44:37.542Z,41.64
2022-07-25T10:45:38.551Z,41.11
2022-07-25T10:46:37.593Z,42.11
2022-07-25T10:47:37.406Z,40.46
2022-07-25T10:48:37.511Z,40.87
2022-07-25T10:49:37.500Z,40.92
2022-07-25T10:50:54.996Z,41.92
2022-07-25T10:51:41.836Z,41.59
2022-07-25T10:52:37.326Z,43.80
2022-07-25T10:53:37.397Z,43.72
2022-07-25T10:54:37.306Z,42.03
2022-07-25T10:55:37.317Z,40.92
2022-07-25T10:56:37.277Z,40.65
2022-07-25T10:57:49.700Z,40.98
2022-07-25T10:58:38.257Z,41.18
2022-07-25T10:59:37.339Z,40.69
2022-07-25T11:00:37.235Z,40.20
2022-07-25T11:01:37.300Z,40.62
2022-07-25T11:02:37.231Z,40.45
2022-07-25T11:03:37.317Z,40.77
2022-07-25T11:04:37.178Z,40.63
2022-07-25T11:05:37.180Z,40.02
2022-07-25T11:06:37.150Z,39.32
2022-07-25T11:07:37.208Z,40.79
2022-07-25T11:08:37.120Z,39.51
2022-07-25T11:09:37.161Z,39.66
2022-07-25T11:10:37.091Z,38.90
2022-07-25T11:11:37.222Z,38.62
2022-07-25T11:12:37.060Z,39.75
2022-07-25T11:13:37.184Z,38.91
2022-07-25T11:14:37.051Z,39.95
2022-07-25T11:15:37.102Z,40.01
2022-07-25T11:16:37.472Z,40.59
2022-07-25T11:17:37.072Z,40.93
2022-07-25T11:18:37.072Z,39.81
2022-07-25T11:19:36.962Z,39.85
2022-07-25T11:20:36.994Z,38.99
2022-07-25T11:21:37.013Z,38.57
2022-07-25T11:22:37.016Z,38.94
2022-07-25T11:23:36.924Z,38.27
2022-07-25T11:24:37.932Z,39.19
2022-07-25T11:25:36.923Z,38.65
2022-07-25T11:26:36.933Z,39.43
2022-07-25T11:27:37.104Z,39.15
2022-07-25T11:28:37.024Z,40.89
2022-07-25T11:29:36.846Z,40.68
2022-07-25T11:30:36.954Z,40.21
2022-07-25T11:31:36.914Z,40.67
2022-07-25T11:32:37.285Z,41.28
2022-07-25T11:33:38.874Z,40.59
2022-07-25T11:34:36.877Z,41.46
2022-07-25T11:35:36.779Z,41.54
2022-07-25T11:36:38.926Z,40.10
2022-07-25T11:37:36.736Z,41.33
2022-07-25T11:38:36.825Z,39.11
2022-07-25T11:39:36.743Z,39.21
2022-07-25T11:40:37.744Z,40.83
2022-07-25T11:41:36.697Z,41.22
2022-07-25T11:42:36.739Z,40.38
2022-07-25T11:43:36.672Z,40.27
2022-07-25T11:44:36.760Z,41.10
2022-07-25T11:45:36.765Z,40.68
2022-07-25T11:46:36.659Z,40.60
2022-07-25T11:47:36.636Z,40.54
2022-07-25T11:48:38.758Z,40.71
2022-07-25T11:49:36.601Z,40.26
2022-07-25T11:50:36.689Z,38.32
2022-07-25T11:51:36.599Z,38.75
2022-07-25T11:52:36.664Z,37.92
2022-07-25T11:53:36.531Z,37.71
2022-07-25T11:54:36.619Z,38.28
2022-07-25T11:55:36.514Z,37.64
2022-07-25T11:56:44.169Z,38.10
2022-07-25T11:57:37.502Z,37.91
2022-07-25T11:58:37.201Z,39.08
2022-07-25T11:59:36.632Z,41.30
2022-07-25T12:00:36.562Z,38.24
2022-07-25T12:01:36.431Z,39.60
2022-07-25T12:02:36.636Z,38.81
2022-07-25T12:03:36.520Z,39.84
2022-07-25T12:04:36.498Z,38.10
2022-07-25T12:05:36.383Z,39.22
2022-07-25T12:06:36.392Z,40.27
2022-07-25T12:07:41.913Z,40.57
2022-07-25T12:08:36.334Z,40.01
2022-07-25T12:09:36.363Z,40.15
2022-07-25T12:10:36.314Z,41.73
2022-07-25T12:11:36.332Z,38.81
2022-07-25T12:12:36.275Z,40.40
2022-07-25T12:13:36.336Z,38.67
2022-07-25T12:14:36.264Z,39.28
2022-07-25T12:15:36.296Z,39.55
2022-07-25T12:16:36.290Z,40.11
2022-07-25T12:17:36.269Z,37.47
2022-07-25T12:18:36.206Z,37.84
2022-07-25T12:19:37.306Z,38.16
2022-07-25T12:20:36.181Z,38.72
2022-07-25T12:21:36.258Z,37.56
2022-07-25T12:22:36.157Z,37.79
2022-07-25T12:23:36.208Z,38.74
2022-07-25T12:24:36.137Z,38.22
2022-07-25T12:25:37.150Z,37.79
2022-07-25T12:26:36.120Z,37.87
2022-07-25T12:27:36.185Z,36.81
2022-07-25T12:28:36.078Z,37.49
2022-07-25T12:29:38.146Z,37.45
2022-07-25T12:30:36.084Z,37.47
2022-07-25T12:31:36.145Z,37.93
2022-07-25T12:32:36.020Z,37.78
2022-07-25T12:33:36.130Z,37.63
2022-07-25T12:34:36.001Z,37.34
2022-07-25T12:35:37.019Z,37.77
2022-07-25T12:36:35.980Z,36.42
2022-07-25T12:37:36.007Z,37.24
2022-07-25T12:38:35.951Z,36.69
2022-07-25T12:39:35.959Z,36.64
2022-07-25T12:40:35.921Z,36.98
2022-07-25T12:41:36.963Z,37.33
2022-07-25T12:42:35.902Z,38.27
2022-07-25T12:43:36.981Z,36.97
2022-07-25T12:44:35.876Z,36.77
2022-07-25T12:45:35.986Z,37.49
2022-07-25T12:46:35.841Z,36.95
2022-07-25T12:47:35.872Z,37.66
2022-07-25T12:48:35.853Z,36.70
2022-07-25T12:49:35.885Z,36.79
2022-07-25T12:50:35.795Z,39.13
2022-07-25T12:51:35.853Z,37.29
2022-07-25T12:52:35.772Z,35.20